sensor_id;sensor_type;location;lat;lon;timestamp;temperature;humidity
1994;DHT22;998;49.906;10.908;2022-10-26T00:01:08;12.00;99.90
1994;DHT22;998;49.906;10.908;2022-10-26T00:03:37;12.00;99.90
1994;DHT22;998;49.906;10.908;2022-10-26T00:06:06;12.00;99.90
1994;DHT22;998;49.906;10.908;2022-10-26T00:08:36;12.00;99.90
1994;DHT22;998;49.906;10.908;2022-10-26T00:11:04;12.00;99.90
1994;DHT22;998;49.906;10.908;2022-10-26T00:13:32;12.10;99.90
1994;DHT22;998;49.906;10.908;2022-10-26T00:16:00;12.10;99.90
1994;DHT22;998;49.906;10.908;2022-10-26T00:18:28;12.00;99.90
1994;DHT22;998;49.906;10.908;2022-10-26T00:21:02;12.00;99.90
1994;DHT22;998;49.906;10.908;2022-10-26T00:23:30;11.80;99.90
1994;DHT22;998;49.906;10.908;2022-10-26T00:25:59;11.70;99.90
1994;DHT22;998;49.906;10.908;2022-10-26T00:28:26;11.70;99.90
1994;DHT22;998;49.906;10.908;2022-10-26T00:30:54;11.70;99.90
1994;DHT22;998;49.906;10.908;2022-10-26T00:33:23;11.60;99.90
1994;DHT22;998;49.906;10.908;2022-10-26T00:35:52;11.60;99.90
1994;DHT22;998;49.906;10.908;2022-10-26T00:38:20;11.60;99.90
1994;DHT22;998;49.906;10.908;2022-10-26T00:40:47;11.70;99.90
1994;DHT22;998;49.906;10.908;2022-10-26T00:43:34;11.60;99.90
1994;DHT22;998;49.906;10.908;2022-10-26T00:46:05;11.50;99.90
1994;DHT22;998;49.906;10.908;2022-10-26T00:48:35;11.50;99.90
1994;DHT22;998;49.906;10.908;2022-10-26T00:51:07;11.60;99.90
1994;DHT22;998;49.906;10.908;2022-10-26T00:53:37;11.60;99.90
1994;DHT22;998;49.906;10.908;2022-10-26T00:56:06;11.60;99.90
1994;DHT22;998;49.906;10.908;2022-10-26T00:58:35;11.60;99.90
1994;DHT22;998;49.906;10.908;2022-10-26T01:01:03;11.50;99.90
1994;DHT22;998;49.906;10.908;2022-10-26T01:03:31;11.40;99.90
1994;DHT22;998;49.906;10.908;2022-10-26T01:05:59;11.20;99.90
1994;DHT22;998;49.906;10.908;2022-10-26T01:08:28;11.30;99.90
1994;DHT22;998;49.906;10.908;2022-10-26T01:10:56;11.20;99.90
1994;DHT22;998;49.906;10.908;2022-10-26T01:13:25;11.20;99.90
1994;DHT22;998;49.906;10.908;2022-10-26T01:16:02;11.20;99.90
1994;DHT22;998;49.906;10.908;2022-10-26T01:18:37;11.10;99.90
1994;DHT22;998;49.906;10.908;2022-10-26T01:21:37;11.10;99.90
1994;DHT22;998;49.906;10.908;2022-10-26T01:27:24;11.20;99.90
1994;DHT22;998;49.906;10.908;2022-10-26T01:30:16;11.20;99.90
1994;DHT22;998;49.906;10.908;2022-10-26T01:32:48;11.10;99.90
1994;DHT22;998;49.906;10.908;2022-10-26T01:35:20;10.90;99.90
1994;DHT22;998;49.906;10.908;2022-10-26T01:37:57;10.90;99.90
1994;DHT22;998;49.906;10.908;2022-10-26T01:40:30;11.00;99.90
1994;DHT22;998;49.906;10.908;2022-10-26T01:43:06;10.80;99.90
1994;DHT22;998;49.906;10.908;2022-10-26T01:45:37;10.90;99.90
1994;DHT22;998;49.906;10.908;2022-10-26T01:48:08;11.00;99.90
1994;DHT22;998;49.906;10.908;2022-10-26T01:50:36;11.10;99.90
1994;DHT22;998;49.906;10.908;2022-10-26T01:53:05;11.10;99.90
1994;DHT22;998;49.906;10.908;2022-10-26T01:55:39;11.10;99.90
1994;DHT22;998;49.906;10.908;2022-10-26T01:58:18;11.20;99.90
1994;DHT22;998;49.906;10.908;2022-10-26T02:00:58;11.20;99.90
1994;DHT22;998;49.906;10.908;2022-10-26T02:03:32;11.10;99.90
1994;DHT22;998;49.906;10.908;2022-10-26T02:06:06;11.20;99.90
1994;DHT22;998;49.906;10.908;2022-10-26T02:08:56;11.20;99.90
1994;DHT22;998;49.906;10.908;2022-10-26T02:11:35;11.10;99.90
1994;DHT22;998;49.906;10.908;2022-10-26T02:14:16;11.20;99.90
1994;DHT22;998;49.906;10.908;2022-10-26T02:16:53;11.20;99.90
1994;DHT22;998;49.906;10.908;2022-10-26T02:19:30;11.30;99.90
1994;DHT22;998;49.906;10.908;2022-10-26T02:22:03;11.30;99.90
1994;DHT22;998;49.906;10.908;2022-10-26T02:24:32;11.30;99.90
1994;DHT22;998;49.906;10.908;2022-10-26T02:27:01;11.30;99.90
1994;DHT22;998;49.906;10.908;2022-10-26T02:29:31;11.30;99.90
1994;DHT22;998;49.906;10.908;2022-10-26T02:32:01;11.20;99.90
1994;DHT22;998;49.906;10.908;2022-10-26T02:34:29;11.10;99.90
1994;DHT22;998;49.906;10.908;2022-10-26T02:37:00;11.10;99.90
1994;DHT22;998;49.906;10.908;2022-10-26T02:39:30;11.10;99.90
1994;DHT22;998;49.906;10.908;2022-10-26T02:42:00;11.10;99.90
1994;DHT22;998;49.906;10.908;2022-10-26T02:44:31;11.10;99.90
1994;DHT22;998;49.906;10.908;2022-10-26T02:47:01;11.10;99.90
1994;DHT22;998;49.906;10.908;2022-10-26T02:49:29;11.20;99.90
1994;DHT22;998;49.906;10.908;2022-10-26T02:52:01;11.20;99.90
1994;DHT22;998;49.906;10.908;2022-10-26T02:54:35;11.20;99.90
1994;DHT22;998;49.906;10.908;2022-10-26T02:57:09;11.30;99.90
1994;DHT22;998;49.906;10.908;2022-10-26T02:59:40;11.20;99.90
1994;DHT22;998;49.906;10.908;2022-10-26T03:02:10;11.30;99.90
1994;DHT22;998;49.906;10.908;2022-10-26T03:04:38;11.10;99.90
1994;DHT22;998;49.906;10.908;2022-10-26T03:07:06;11.00;99.90
1994;DHT22;998;49.906;10.908;2022-10-26T03:09:33;11.10;99.90
1994;DHT22;998;49.906;10.908;2022-10-26T03:12:00;11.00;99.90
1994;DHT22;998;49.906;10.908;2022-10-26T03:14:28;10.90;99.90
1994;DHT22;998;49.906;10.908;2022-10-26T03:16:55;11.00;99.90
1994;DHT22;998;49.906;10.908;2022-10-26T03:19:24;10.90;99.90
1994;DHT22;998;49.906;10.908;2022-10-26T03:21:51;11.10;99.90
1994;DHT22;998;49.906;10.908;2022-10-26T03:24:19;11.10;99.90
1994;DHT22;998;49.906;10.908;2022-10-26T03:26:46;11.20;99.90
1994;DHT22;998;49.906;10.908;2022-10-26T03:29:13;11.20;99.90
1994;DHT22;998;49.906;10.908;2022-10-26T03:31:41;11.30;99.90
1994;DHT22;998;49.906;10.908;2022-10-26T03:34:08;11.30;99.90
1994;DHT22;998;49.906;10.908;2022-10-26T03:36:37;11.30;99.90
1994;DHT22;998;49.906;10.908;2022-10-26T03:39:04;11.30;99.90
1994;DHT22;998;49.906;10.908;2022-10-26T03:41:32;11.30;99.90
1994;DHT22;998;49.906;10.908;2022-10-26T03:43:59;11.30;99.90
1994;DHT22;998;49.906;10.908;2022-10-26T03:46:26;11.30;99.90
1994;DHT22;998;49.906;10.908;2022-10-26T03:48:54;11.30;99.90
1994;DHT22;998;49.906;10.908;2022-10-26T03:51:21;11.30;99.90
1994;DHT22;998;49.906;10.908;2022-10-26T03:53:50;11.40;99.90
1994;DHT22;998;49.906;10.908;2022-10-26T03:56:17;11.40;99.90
1994;DHT22;998;49.906;10.908;2022-10-26T03:58:45;11.30;99.90
1994;DHT22;998;49.906;10.908;2022-10-26T04:01:12;11.30;99.90
1994;DHT22;998;49.906;10.908;2022-10-26T04:03:39;11.30;99.90
1994;DHT22;998;49.906;10.908;2022-10-26T04:06:07;11.40;99.90
1994;DHT22;998;49.906;10.908;2022-10-26T04:08:34;11.40;99.90
1994;DHT22;998;49.906;10.908;2022-10-26T04:11:03;11.40;99.90
1994;DHT22;998;49.906;10.908;2022-10-26T04:13:31;11.40;99.90
1994;DHT22;998;49.906;10.908;2022-10-26T04:15:58;11.40;99.90
1994;DHT22;998;49.906;10.908;2022-10-26T04:18:26;11.40;99.90
1994;DHT22;998;49.906;10.908;2022-10-26T04:20:53;11.30;99.90
1994;DHT22;998;49.906;10.908;2022-10-26T04:23:20;11.30;99.90
1994;DHT22;998;49.906;10.908;2022-10-26T04:25:48;11.30;99.90
1994;DHT22;998;49.906;10.908;2022-10-26T04:28:17;11.20;99.90
1994;DHT22;998;49.906;10.908;2022-10-26T04:30:44;11.00;99.90
1994;DHT22;998;49.906;10.908;2022-10-26T04:33:13;10.90;99.90
1994;DHT22;998;49.906;10.908;2022-10-26T04:35:40;10.80;99.90
1994;DHT22;998;49.906;10.908;2022-10-26T04:38:10;11.00;99.90
1994;DHT22;998;49.906;10.908;2022-10-26T04:40:37;11.20;99.90
1994;DHT22;998;49.906;10.908;2022-10-26T04:43:05;11.20;99.90
1994;DHT22;998;49.906;10.908;2022-10-26T04:45:34;11.30;99.90
1994;DHT22;998;49.906;10.908;2022-10-26T04:48:03;11.30;99.90
1994;DHT22;998;49.906;10.908;2022-10-26T04:50:31;11.30;99.90
1994;DHT22;998;49.906;10.908;2022-10-26T04:52:58;11.40;99.90
1994;DHT22;998;49.906;10.908;2022-10-26T04:55:26;11.30;99.90
1994;DHT22;998;49.906;10.908;2022-10-26T04:57:53;11.40;99.90
1994;DHT22;998;49.906;10.908;2022-10-26T05:00:21;11.20;99.90
1994;DHT22;998;49.906;10.908;2022-10-26T05:02:50;11.30;99.90
1994;DHT22;998;49.906;10.908;2022-10-26T05:05:17;11.30;99.90
1994;DHT22;998;49.906;10.908;2022-10-26T05:07:52;11.30;99.90
1994;DHT22;998;49.906;10.908;2022-10-26T05:10:20;11.50;99.90
1994;DHT22;998;49.906;10.908;2022-10-26T05:12:50;11.50;99.90
1994;DHT22;998;49.906;10.908;2022-10-26T05:15:17;11.50;99.90
1994;DHT22;998;49.906;10.908;2022-10-26T05:17:45;11.50;99.90
1994;DHT22;998;49.906;10.908;2022-10-26T05:20:14;11.50;99.90
1994;DHT22;998;49.906;10.908;2022-10-26T05:22:41;11.50;99.90
1994;DHT22;998;49.906;10.908;2022-10-26T05:25:09;11.40;99.90
1994;DHT22;998;49.906;10.908;2022-10-26T05:27:36;11.40;99.90
1994;DHT22;998;49.906;10.908;2022-10-26T05:30:04;11.50;99.90
1994;DHT22;998;49.906;10.908;2022-10-26T05:32:31;11.40;99.90
1994;DHT22;998;49.906;10.908;2022-10-26T05:34:59;11.40;99.90
1994;DHT22;998;49.906;10.908;2022-10-26T05:37:29;11.30;99.90
1994;DHT22;998;49.906;10.908;2022-10-26T05:39:56;11.40;99.90
1994;DHT22;998;49.906;10.908;2022-10-26T05:42:24;11.40;99.90
1994;DHT22;998;49.906;10.908;2022-10-26T05:44:51;11.50;99.90
1994;DHT22;998;49.906;10.908;2022-10-26T05:47:18;11.50;99.90
1994;DHT22;998;49.906;10.908;2022-10-26T05:49:46;11.50;99.90
1994;DHT22;998;49.906;10.908;2022-10-26T05:52:13;11.40;99.90
1994;DHT22;998;49.906;10.908;2022-10-26T05:54:42;11.50;99.90
1994;DHT22;998;49.906;10.908;2022-10-26T05:57:11;11.40;99.90
1994;DHT22;998;49.906;10.908;2022-10-26T05:59:39;11.40;99.90
1994;DHT22;998;49.906;10.908;2022-10-26T06:02:16;11.40;99.90
1994;DHT22;998;49.906;10.908;2022-10-26T06:04:45;11.40;99.90
1994;DHT22;998;49.906;10.908;2022-10-26T06:07:16;11.30;99.90
1994;DHT22;998;49.906;10.908;2022-10-26T06:09:47;11.40;99.90
1994;DHT22;998;49.906;10.908;2022-10-26T06:12:15;11.40;99.90
1994;DHT22;998;49.906;10.908;2022-10-26T06:14:43;11.40;99.90
1994;DHT22;998;49.906;10.908;2022-10-26T06:17:29;11.30;99.90
1994;DHT22;998;49.906;10.908;2022-10-26T06:20:20;11.40;99.90
1994;DHT22;998;49.906;10.908;2022-10-26T06:22:57;11.50;99.90
1994;DHT22;998;49.906;10.908;2022-10-26T06:25:42;11.40;99.90
1994;DHT22;998;49.906;10.908;2022-10-26T06:28:21;11.30;99.90
1994;DHT22;998;49.906;10.908;2022-10-26T06:30:51;11.40;99.90
1994;DHT22;998;49.906;10.908;2022-10-26T06:33:19;11.50;99.90
1994;DHT22;998;49.906;10.908;2022-10-26T06:35:52;11.50;99.90
1994;DHT22;998;49.906;10.908;2022-10-26T06:38:22;11.50;99.90
1994;DHT22;998;49.906;10.908;2022-10-26T06:40:55;11.50;99.90
1994;DHT22;998;49.906;10.908;2022-10-26T06:43:24;11.50;99.90
1994;DHT22;998;49.906;10.908;2022-10-26T06:45:58;11.60;99.90
1994;DHT22;998;49.906;10.908;2022-10-26T06:48:34;11.60;99.90
1994;DHT22;998;49.906;10.908;2022-10-26T06:51:06;11.60;99.90
1994;DHT22;998;49.906;10.908;2022-10-26T06:53:41;11.60;99.90
1994;DHT22;998;49.906;10.908;2022-10-26T06:56:12;11.60;99.90
1994;DHT22;998;49.906;10.908;2022-10-26T06:58:40;11.60;99.90
1994;DHT22;998;49.906;10.908;2022-10-26T07:01:10;11.60;99.90
1994;DHT22;998;49.906;10.908;2022-10-26T07:03:38;11.70;99.90
1994;DHT22;998;49.906;10.908;2022-10-26T07:06:07;11.70;99.90
1994;DHT22;998;49.906;10.908;2022-10-26T07:08:35;11.70;99.90
1994;DHT22;998;49.906;10.908;2022-10-26T07:11:02;11.70;99.90
1994;DHT22;998;49.906;10.908;2022-10-26T07:13:32;11.70;99.90
1994;DHT22;998;49.906;10.908;2022-10-26T07:15:59;11.70;99.90
1994;DHT22;998;49.906;10.908;2022-10-26T07:18:26;11.70;99.90
1994;DHT22;998;49.906;10.908;2022-10-26T07:20:53;11.70;99.90
1994;DHT22;998;49.906;10.908;2022-10-26T07:23:21;11.60;99.90
1994;DHT22;998;49.906;10.908;2022-10-26T07:25:48;11.60;99.90
1994;DHT22;998;49.906;10.908;2022-10-26T07:28:16;11.60;99.90
1994;DHT22;998;49.906;10.908;2022-10-26T07:30:45;11.70;99.90
1994;DHT22;998;49.906;10.908;2022-10-26T07:33:13;11.80;99.90
1994;DHT22;998;49.906;10.908;2022-10-26T07:35:41;11.70;99.90
1994;DHT22;998;49.906;10.908;2022-10-26T07:38:08;11.80;99.90
1994;DHT22;998;49.906;10.908;2022-10-26T07:40:36;11.80;99.90
1994;DHT22;998;49.906;10.908;2022-10-26T07:43:04;11.80;99.90
1994;DHT22;998;49.906;10.908;2022-10-26T07:45:32;11.90;99.90
1994;DHT22;998;49.906;10.908;2022-10-26T07:48:01;12.00;99.90
1994;DHT22;998;49.906;10.908;2022-10-26T07:50:29;12.00;99.90
1994;DHT22;998;49.906;10.908;2022-10-26T07:52:57;12.00;99.90
1994;DHT22;998;49.906;10.908;2022-10-26T07:55:25;12.10;99.90
1994;DHT22;998;49.906;10.908;2022-10-26T07:57:54;12.00;99.90
1994;DHT22;998;49.906;10.908;2022-10-26T08:00:21;12.00;99.90
1994;DHT22;998;49.906;10.908;2022-10-26T08:02:49;12.00;99.90
1994;DHT22;998;49.906;10.908;2022-10-26T08:05:17;11.90;99.90
1994;DHT22;998;49.906;10.908;2022-10-26T08:07:45;11.80;99.90
1994;DHT22;998;49.906;10.908;2022-10-26T08:10:13;11.90;99.90
1994;DHT22;998;49.906;10.908;2022-10-26T08:12:42;12.00;99.90
1994;DHT22;998;49.906;10.908;2022-10-26T08:15:10;12.00;99.90
1994;DHT22;998;49.906;10.908;2022-10-26T08:17:37;12.20;99.90
1994;DHT22;998;49.906;10.908;2022-10-26T08:20:05;12.20;99.90
1994;DHT22;998;49.906;10.908;2022-10-26T08:22:34;12.30;99.90
1994;DHT22;998;49.906;10.908;2022-10-26T08:25:01;12.30;99.90
1994;DHT22;998;49.906;10.908;2022-10-26T08:27:29;12.40;99.90
1994;DHT22;998;49.906;10.908;2022-10-26T08:29:56;12.40;99.90
1994;DHT22;998;49.906;10.908;2022-10-26T08:32:23;12.40;99.90
1994;DHT22;998;49.906;10.908;2022-10-26T08:34:51;12.50;99.90
1994;DHT22;998;49.906;10.908;2022-10-26T08:37:18;12.60;99.90
1994;DHT22;998;49.906;10.908;2022-10-26T08:39:47;12.60;99.90
1994;DHT22;998;49.906;10.908;2022-10-26T08:42:17;12.60;99.90
1994;DHT22;998;49.906;10.908;2022-10-26T08:44:47;12.70;99.90
1994;DHT22;998;49.906;10.908;2022-10-26T08:47:19;12.70;99.90
1994;DHT22;998;49.906;10.908;2022-10-26T08:49:51;12.80;99.90
1994;DHT22;998;49.906;10.908;2022-10-26T08:52:25;12.80;99.90
1994;DHT22;998;49.906;10.908;2022-10-26T08:54:58;12.90;99.90
1994;DHT22;998;49.906;10.908;2022-10-26T08:57:29;12.90;99.90
1994;DHT22;998;49.906;10.908;2022-10-26T09:00:02;12.90;99.90
1994;DHT22;998;49.906;10.908;2022-10-26T09:02:30;13.00;99.90
1994;DHT22;998;49.906;10.908;2022-10-26T09:04:58;13.10;99.90
1994;DHT22;998;49.906;10.908;2022-10-26T09:07:39;13.20;99.90
1994;DHT22;998;49.906;10.908;2022-10-26T09:10:23;13.20;99.90
1994;DHT22;998;49.906;10.908;2022-10-26T09:13:00;13.30;99.90
1994;DHT22;998;49.906;10.908;2022-10-26T09:15:36;13.30;99.90
1994;DHT22;998;49.906;10.908;2022-10-26T09:18:19;13.40;99.90
1994;DHT22;998;49.906;10.908;2022-10-26T09:23:52;13.40;99.90
1994;DHT22;998;49.906;10.908;2022-10-26T09:26:28;13.40;99.90
1994;DHT22;998;49.906;10.908;2022-10-26T09:29:01;13.50;99.90
1994;DHT22;998;49.906;10.908;2022-10-26T09:31:32;13.50;99.90
1994;DHT22;998;49.906;10.908;2022-10-26T09:34:04;13.50;99.90
1994;DHT22;998;49.906;10.908;2022-10-26T09:36:33;13.60;99.90
1994;DHT22;998;49.906;10.908;2022-10-26T09:39:11;13.60;99.90
1994;DHT22;998;49.906;10.908;2022-10-26T09:41:45;13.60;99.90
1994;DHT22;998;49.906;10.908;2022-10-26T09:44:20;13.60;99.90
1994;DHT22;998;49.906;10.908;2022-10-26T09:46:56;13.60;99.90
1994;DHT22;998;49.906;10.908;2022-10-26T09:49:27;13.60;99.90
1994;DHT22;998;49.906;10.908;2022-10-26T09:51:59;13.60;99.90
1994;DHT22;998;49.906;10.908;2022-10-26T09:54:27;13.70;99.90
1994;DHT22;998;49.906;10.908;2022-10-26T09:56:58;13.80;99.90
1994;DHT22;998;49.906;10.908;2022-10-26T09:59:27;13.80;99.90
1994;DHT22;998;49.906;10.908;2022-10-26T10:01:58;13.90;99.90
1994;DHT22;998;49.906;10.908;2022-10-26T10:04:25;13.90;99.90
1994;DHT22;998;49.906;10.908;2022-10-26T10:07:12;14.00;99.90
1994;DHT22;998;49.906;10.908;2022-10-26T10:09:39;14.10;99.90
1994;DHT22;998;49.906;10.908;2022-10-26T10:12:18;14.20;99.90
1994;DHT22;998;49.906;10.908;2022-10-26T10:14:55;14.30;99.90
1994;DHT22;998;49.906;10.908;2022-10-26T10:17:24;14.30;99.90
1994;DHT22;998;49.906;10.908;2022-10-26T10:19:52;14.40;99.90
1994;DHT22;998;49.906;10.908;2022-10-26T10:22:20;14.40;99.90
1994;DHT22;998;49.906;10.908;2022-10-26T10:24:55;14.40;99.90
1994;DHT22;998;49.906;10.908;2022-10-26T10:27:24;14.50;99.90
1994;DHT22;998;49.906;10.908;2022-10-26T10:29:53;14.50;99.90
1994;DHT22;998;49.906;10.908;2022-10-26T10:32:22;14.60;99.90
1994;DHT22;998;49.906;10.908;2022-10-26T10:34:52;14.70;99.90
1994;DHT22;998;49.906;10.908;2022-10-26T10:37:25;14.80;99.90
1994;DHT22;998;49.906;10.908;2022-10-26T10:39:56;14.90;99.90
1994;DHT22;998;49.906;10.908;2022-10-26T10:42:29;15.40;99.90
1994;DHT22;998;49.906;10.908;2022-10-26T10:44:57;15.50;99.90
1994;DHT22;998;49.906;10.908;2022-10-26T10:47:27;15.40;99.90
1994;DHT22;998;49.906;10.908;2022-10-26T10:49:58;15.60;99.90
1994;DHT22;998;49.906;10.908;2022-10-26T10:52:29;15.60;99.90
1994;DHT22;998;49.906;10.908;2022-10-26T10:55:07;15.70;99.90
1994;DHT22;998;49.906;10.908;2022-10-26T10:57:51;15.90;99.90
1994;DHT22;998;49.906;10.908;2022-10-26T11:00:23;15.90;99.90
1994;DHT22;998;49.906;10.908;2022-10-26T11:03:00;16.60;99.90
1994;DHT22;998;49.906;10.908;2022-10-26T11:05:50;17.60;99.90
1994;DHT22;998;49.906;10.908;2022-10-26T11:08:27;18.40;99.90
1994;DHT22;998;49.906;10.908;2022-10-26T11:11:00;17.80;99.90
1994;DHT22;998;49.906;10.908;2022-10-26T11:13:34;17.40;99.90
1994;DHT22;998;49.906;10.908;2022-10-26T11:16:06;17.10;99.90
1994;DHT22;998;49.906;10.908;2022-10-26T11:18:42;17.60;99.90
1994;DHT22;998;49.906;10.908;2022-10-26T11:21:22;18.10;99.90
1994;DHT22;998;49.906;10.908;2022-10-26T11:23:56;17.80;99.90
1994;DHT22;998;49.906;10.908;2022-10-26T11:26:34;18.10;99.90
1994;DHT22;998;49.906;10.908;2022-10-26T11:29:13;18.20;99.90
1994;DHT22;998;49.906;10.908;2022-10-26T11:31:46;18.00;99.90
1994;DHT22;998;49.906;10.908;2022-10-26T11:34:23;17.80;99.90
1994;DHT22;998;49.906;10.908;2022-10-26T11:36:57;17.60;99.90
1994;DHT22;998;49.906;10.908;2022-10-26T11:39:33;17.80;99.90
1994;DHT22;998;49.906;10.908;2022-10-26T11:42:07;18.40;99.90
1994;DHT22;998;49.906;10.908;2022-10-26T11:44:39;18.30;99.90
1994;DHT22;998;49.906;10.908;2022-10-26T11:47:13;17.80;99.90
1994;DHT22;998;49.906;10.908;2022-10-26T11:49:46;17.50;99.90
1994;DHT22;998;49.906;10.908;2022-10-26T11:52:17;17.40;99.90
1994;DHT22;998;49.906;10.908;2022-10-26T11:54:50;17.40;99.90
1994;DHT22;998;49.906;10.908;2022-10-26T11:57:19;17.40;99.90
1994;DHT22;998;49.906;10.908;2022-10-26T11:59:52;17.50;99.90
1994;DHT22;998;49.906;10.908;2022-10-26T12:02:21;17.50;99.90
1994;DHT22;998;49.906;10.908;2022-10-26T12:04:53;17.60;99.90
1994;DHT22;998;49.906;10.908;2022-10-26T12:07:24;18.40;99.90
1994;DHT22;998;49.906;10.908;2022-10-26T12:09:53;19.10;99.90
1994;DHT22;998;49.906;10.908;2022-10-26T12:12:27;19.60;99.90
1994;DHT22;998;49.906;10.908;2022-10-26T12:15:05;19.90;99.90
1994;DHT22;998;49.906;10.908;2022-10-26T12:17:45;19.60;99.90
1994;DHT22;998;49.906;10.908;2022-10-26T12:23:17;18.70;99.90
1994;DHT22;998;49.906;10.908;2022-10-26T12:25:44;19.00;99.90
1994;DHT22;998;49.906;10.908;2022-10-26T12:28:39;19.10;99.90
1994;DHT22;998;49.906;10.908;2022-10-26T12:34:24;18.90;99.90
1994;DHT22;998;49.906;10.908;2022-10-26T12:37:31;18.60;99.90
1994;DHT22;998;49.906;10.908;2022-10-26T12:40:37;19.20;99.90
1994;DHT22;998;49.906;10.908;2022-10-26T12:43:35;19.20;99.90
1994;DHT22;998;49.906;10.908;2022-10-26T12:52:44;19.40;99.90
1994;DHT22;998;49.906;10.908;2022-10-26T13:01:35;18.90;99.90
1994;DHT22;998;49.906;10.908;2022-10-26T13:07:25;18.60;99.90
1994;DHT22;998;49.906;10.908;2022-10-26T13:10:04;18.40;99.90
1994;DHT22;998;49.906;10.908;2022-10-26T13:12:46;18.40;99.90
1994;DHT22;998;49.906;10.908;2022-10-26T13:15:23;18.40;99.90
1994;DHT22;998;49.906;10.908;2022-10-26T13:17:59;18.70;99.90
1994;DHT22;998;49.906;10.908;2022-10-26T13:20:29;19.30;99.90
1994;DHT22;998;49.906;10.908;2022-10-26T13:22:57;19.60;99.90
1994;DHT22;998;49.906;10.908;2022-10-26T13:25:27;20.00;99.90
1994;DHT22;998;49.906;10.908;2022-10-26T13:28:03;20.20;99.90
1994;DHT22;998;49.906;10.908;2022-10-26T13:30:41;20.40;99.90
1994;DHT22;998;49.906;10.908;2022-10-26T13:33:28;20.60;99.90
1994;DHT22;998;49.906;10.908;2022-10-26T13:35:58;20.60;99.90
1994;DHT22;998;49.906;10.908;2022-10-26T13:38:31;20.70;99.90
1994;DHT22;998;49.906;10.908;2022-10-26T13:41:12;20.60;99.90
1994;DHT22;998;49.906;10.908;2022-10-26T13:43:43;20.60;99.90
1994;DHT22;998;49.906;10.908;2022-10-26T13:46:24;20.80;99.90
1994;DHT22;998;49.906;10.908;2022-10-26T13:48:57;21.00;99.90
1994;DHT22;998;49.906;10.908;2022-10-26T13:51:34;20.90;99.90
1994;DHT22;998;49.906;10.908;2022-10-26T13:54:12;20.90;99.90
1994;DHT22;998;49.906;10.908;2022-10-26T13:56:48;20.90;99.90
1994;DHT22;998;49.906;10.908;2022-10-26T13:59:20;20.80;99.90
1994;DHT22;998;49.906;10.908;2022-10-26T14:02:05;20.60;99.90
1994;DHT22;998;49.906;10.908;2022-10-26T14:04:32;20.40;99.90
1994;DHT22;998;49.906;10.908;2022-10-26T14:06:59;20.50;99.90
1994;DHT22;998;49.906;10.908;2022-10-26T14:09:28;20.40;99.90
1994;DHT22;998;49.906;10.908;2022-10-26T14:11:59;20.20;99.90
1994;DHT22;998;49.906;10.908;2022-10-26T14:14:29;20.10;99.90
1994;DHT22;998;49.906;10.908;2022-10-26T14:16:58;20.10;99.90
1994;DHT22;998;49.906;10.908;2022-10-26T14:19:29;20.10;99.90
1994;DHT22;998;49.906;10.908;2022-10-26T14:21:56;20.20;99.90
1994;DHT22;998;49.906;10.908;2022-10-26T14:24:27;20.30;99.90
1994;DHT22;998;49.906;10.908;2022-10-26T14:26:55;20.50;99.90
1994;DHT22;998;49.906;10.908;2022-10-26T14:29:25;20.60;99.90
1994;DHT22;998;49.906;10.908;2022-10-26T14:31:53;20.40;99.90
1994;DHT22;998;49.906;10.908;2022-10-26T14:34:22;20.20;99.90
1994;DHT22;998;49.906;10.908;2022-10-26T14:36:51;20.00;99.90
1994;DHT22;998;49.906;10.908;2022-10-26T14:39:27;19.90;99.90
1994;DHT22;998;49.906;10.908;2022-10-26T14:41:59;19.90;99.90
1994;DHT22;998;49.906;10.908;2022-10-26T14:44:29;19.80;99.90
1994;DHT22;998;49.906;10.908;2022-10-26T14:46:57;19.70;99.90
1994;DHT22;998;49.906;10.908;2022-10-26T14:49:26;19.70;99.90
1994;DHT22;998;49.906;10.908;2022-10-26T14:51:56;19.60;99.90
1994;DHT22;998;49.906;10.908;2022-10-26T14:54:26;19.60;99.90
1994;DHT22;998;49.906;10.908;2022-10-26T14:56:55;19.60;99.90
1994;DHT22;998;49.906;10.908;2022-10-26T14:59:26;19.50;99.90
1994;DHT22;998;49.906;10.908;2022-10-26T15:01:56;19.50;99.90
1994;DHT22;998;49.906;10.908;2022-10-26T15:04:30;19.40;99.90
1994;DHT22;998;49.906;10.908;2022-10-26T15:07:06;19.40;99.90
1994;DHT22;998;49.906;10.908;2022-10-26T15:09:38;19.30;99.90
1994;DHT22;998;49.906;10.908;2022-10-26T15:12:22;19.30;99.90
1994;DHT22;998;49.906;10.908;2022-10-26T15:14:52;19.20;99.90
1994;DHT22;998;49.906;10.908;2022-10-26T15:17:23;19.10;99.90
1994;DHT22;998;49.906;10.908;2022-10-26T15:19:52;19.10;99.90
1994;DHT22;998;49.906;10.908;2022-10-26T15:22:23;19.10;99.90
1994;DHT22;998;49.906;10.908;2022-10-26T15:24:54;19.00;99.90
1994;DHT22;998;49.906;10.908;2022-10-26T15:27:22;18.90;99.90
1994;DHT22;998;49.906;10.908;2022-10-26T15:29:51;18.90;99.90
1994;DHT22;998;49.906;10.908;2022-10-26T15:32:26;18.80;99.90
1994;DHT22;998;49.906;10.908;2022-10-26T15:38:03;18.70;99.90
1994;DHT22;998;49.906;10.908;2022-10-26T15:40:31;18.60;99.90
1994;DHT22;998;49.906;10.908;2022-10-26T15:42:59;18.60;99.90
1994;DHT22;998;49.906;10.908;2022-10-26T15:45:29;18.60;99.90
1994;DHT22;998;49.906;10.908;2022-10-26T15:48:04;18.60;99.90
1994;DHT22;998;49.906;10.908;2022-10-26T15:50:42;18.50;99.90
1994;DHT22;998;49.906;10.908;2022-10-26T15:53:15;18.60;99.90
1994;DHT22;998;49.906;10.908;2022-10-26T15:55:43;18.60;99.90
1994;DHT22;998;49.906;10.908;2022-10-26T15:58:11;18.50;99.90
1994;DHT22;998;49.906;10.908;2022-10-26T16:00:38;18.40;99.90
1994;DHT22;998;49.906;10.908;2022-10-26T16:03:10;18.40;99.90
1994;DHT22;998;49.906;10.908;2022-10-26T16:05:39;18.40;99.90
1994;DHT22;998;49.906;10.908;2022-10-26T16:08:08;18.30;99.90
1994;DHT22;998;49.906;10.908;2022-10-26T16:10:38;18.30;99.90
1994;DHT22;998;49.906;10.908;2022-10-26T16:13:07;18.30;99.90
1994;DHT22;998;49.906;10.908;2022-10-26T16:15:37;18.20;99.90
1994;DHT22;998;49.906;10.908;2022-10-26T16:18:06;18.20;99.90
1994;DHT22;998;49.906;10.908;2022-10-26T16:20:33;18.20;99.90
1994;DHT22;998;49.906;10.908;2022-10-26T16:23:01;18.10;99.90
1994;DHT22;998;49.906;10.908;2022-10-26T16:25:33;18.10;99.90
1994;DHT22;998;49.906;10.908;2022-10-26T16:28:00;18.10;99.90
1994;DHT22;998;49.906;10.908;2022-10-26T16:30:28;18.00;99.90
1994;DHT22;998;49.906;10.908;2022-10-26T16:32:56;18.00;99.90
1994;DHT22;998;49.906;10.908;2022-10-26T16:35:25;18.00;99.90
1994;DHT22;998;49.906;10.908;2022-10-26T16:37:52;17.90;99.90
1994;DHT22;998;49.906;10.908;2022-10-26T16:40:20;17.90;99.90
1994;DHT22;998;49.906;10.908;2022-10-26T16:42:47;17.90;99.90
1994;DHT22;998;49.906;10.908;2022-10-26T16:45:15;17.90;99.90
1994;DHT22;998;49.906;10.908;2022-10-26T16:47:42;17.80;99.90
1994;DHT22;998;49.906;10.908;2022-10-26T16:50:11;17.80;99.90
1994;DHT22;998;49.906;10.908;2022-10-26T16:52:40;17.80;99.90
1994;DHT22;998;49.906;10.908;2022-10-26T16:55:08;17.70;99.90
1994;DHT22;998;49.906;10.908;2022-10-26T16:57:36;17.70;99.90
1994;DHT22;998;49.906;10.908;2022-10-26T17:00:05;17.70;99.90